createdAt,value
2019-01-08T00:01:33.000Z,24.67
2019-01-08T00:03:59.421Z,24.20
2019-01-08T00:06:25.785Z,27.13
2019-01-08T00:08:52.170Z,27.33
2019-01-08T00:11:18.722Z,26.57
2019-01-08T00:13:45.113Z,28.63
2019-01-08T00:16:11.668Z,23.73
2019-01-08T00:18:38.197Z,25.43
2019-01-08T00:21:04.823Z,21.47
2019-01-08T00:23:31.291Z,21.27
2019-01-08T00:25:57.757Z,21.13
2019-01-08T00:28:24.325Z,20.27
2019-01-08T00:30:50.814Z,22.87
2019-01-08T00:33:17.209Z,21.50
2019-01-08T00:35:43.796Z,22.43
2019-01-08T00:40:54.698Z,20.90
2019-01-08T00:43:21.149Z,20.50
2019-01-08T00:45:47.635Z,20.70
2019-01-08T00:48:13.990Z,18.33
2019-01-08T00:50:40.565Z,22.23
2019-01-08T00:53:06.925Z,16.17
2019-01-08T00:55:33.402Z,18.73
2019-01-08T00:57:59.879Z,17.70
2019-01-08T01:00:26.325Z,18.73
2019-01-08T01:02:52.817Z,21.03
2019-01-08T01:05:19.390Z,17.50
2019-01-08T01:07:46.086Z,19.33
2019-01-08T01:10:12.648Z,19.63
2019-01-08T01:12:39.028Z,20.17
2019-01-08T01:15:07.375Z,21.30
2019-01-08T01:17:33.766Z,17.83
2019-01-08T01:20:00.233Z,18.77
2019-01-08T01:22:26.739Z,17.13
2019-01-08T01:24:53.184Z,18.97
2019-01-08T01:27:19.643Z,18.67
2019-01-08T01:29:46.091Z,14.80
2019-01-08T01:32:12.572Z,20.60
2019-01-08T01:34:39.146Z,13.17
2019-01-08T01:37:05.633Z,19.30
2019-01-08T01:39:32.094Z,20.50
2019-01-08T01:41:58.543Z,13.57
2019-01-08T01:44:25.029Z,14.50
2019-01-08T01:46:51.494Z,15.17
2019-01-08T01:49:17.897Z,17.73
2019-01-08T01:51:44.453Z,14.30
2019-01-08T01:54:10.945Z,16.70
2019-01-08T01:56:37.395Z,14.67
2019-01-08T01:59:08.387Z,16.47
2019-01-08T02:01:32.225Z,13.13
2019-01-08T02:03:58.601Z,14.70
2019-01-08T02:06:25.182Z,14.47
2019-01-08T02:08:51.760Z,9.83
2019-01-08T02:11:18.224Z,14.10
2019-01-08T02:13:44.714Z,10.83
2019-01-08T02:16:11.304Z,11.47
2019-01-08T02:18:37.892Z,14.73
2019-01-08T02:21:04.239Z,15.43
2019-01-08T02:23:30.739Z,10.90
2019-01-08T02:25:57.204Z,9.80
2019-01-08T02:28:23.890Z,13.57
2019-01-08T02:30:50.377Z,11.20
2019-01-08T02:33:16.829Z,13.07
2019-01-08T02:35:43.211Z,13.90
2019-01-08T02:38:09.677Z,10.60
2019-01-08T02:40:36.060Z,11.47
2019-01-08T02:43:02.613Z,11.60
2019-01-08T02:45:29.325Z,12.33
2019-01-08T02:47:55.691Z,11.10
2019-01-08T02:50:22.156Z,11.13
2019-01-08T02:52:48.632Z,13.00
2019-01-08T02:55:15.253Z,10.17
2019-01-08T02:57:41.714Z,11.10
2019-01-08T03:00:08.370Z,9.97
2019-01-08T03:02:34.762Z,11.60
2019-01-08T03:05:01.214Z,13.70
2019-01-08T03:07:27.692Z,10.90
2019-01-08T03:09:54.248Z,10.80
2019-01-08T03:12:20.737Z,8.57
2019-01-08T03:14:47.385Z,7.83
2019-01-08T03:17:13.785Z,6.93
2019-01-08T03:19:40.239Z,9.90
2019-01-08T03:22:06.625Z,9.97
2019-01-08T03:24:33.081Z,9.00
2019-01-08T03:26:59.648Z,6.47
2019-01-08T03:29:33.309Z,7.73
2019-01-08T03:31:54.492Z,6.53
2019-01-08T03:34:20.944Z,6.70
2019-01-08T03:36:47.434Z,6.13
2019-01-08T03:39:13.885Z,7.83
2019-01-08T03:41:40.367Z,5.13
2019-01-08T03:44:06.717Z,6.97
2019-01-08T03:46:33.477Z,7.83
2019-01-08T03:48:59.841Z,5.57
2019-01-08T03:51:26.307Z,5.60
2019-01-08T03:53:52.763Z,4.77
2019-01-08T03:56:19.236Z,4.90
2019-01-08T03:58:45.717Z,5.80
2019-01-08T04:01:12.174Z,8.97
2019-01-08T04:03:38.572Z,5.10
2019-01-08T04:06:04.924Z,4.60
2019-01-08T04:08:31.417Z,4.57
2019-01-08T04:10:57.984Z,4.23
2019-01-08T04:13:24.469Z,3.97
2019-01-08T04:15:50.962Z,5.00
2019-01-08T04:18:17.423Z,4.17
2019-01-08T04:20:43.880Z,4.67
2019-01-08T04:23:10.482Z,5.17
2019-01-08T04:25:36.957Z,4.50
2019-01-08T04:28:03.321Z,2.53
2019-01-08T04:30:29.696Z,2.80
2019-01-08T04:32:56.168Z,3.13
2019-01-08T04:35:22.636Z,2.70
2019-01-08T04:37:49.196Z,3.13
2019-01-08T04:40:15.690Z,1.97
2019-01-08T04:42:42.136Z,2.20
2019-01-08T04:45:08.617Z,2.47
2019-01-08T04:47:34.975Z,3.03
2019-01-08T04:50:01.490Z,2.33
2019-01-08T04:52:28.053Z,2.90
2019-01-08T04:54:54.532Z,2.20
2019-01-08T04:57:20.872Z,3.60
2019-01-08T04:59:47.270Z,2.50
2019-01-08T05:02:13.730Z,2.27
2019-01-08T05:04:40.094Z,2.90
2019-01-08T05:07:06.470Z,2.17
2019-01-08T05:09:33.031Z,3.10
2019-01-08T05:11:59.515Z,2.23
2019-01-08T05:14:25.985Z,3.40
2019-01-08T05:16:52.619Z,2.67
2019-01-08T05:19:19.081Z,3.80
2019-01-08T05:21:45.701Z,5.10
2019-01-08T05:24:12.268Z,4.17
2019-01-08T05:26:38.858Z,3.57
2019-01-08T05:29:05.311Z,3.43
2019-01-08T05:31:31.719Z,5.27
2019-01-08T05:33:58.263Z,4.97
2019-01-08T05:36:24.760Z,4.10
2019-01-08T05:38:51.194Z,3.67
2019-01-08T05:41:17.693Z,4.23
2019-01-08T05:43:44.249Z,3.37
2019-01-08T05:46:10.814Z,3.83
2019-01-08T05:48:37.193Z,3.87
2019-01-08T05:51:03.657Z,2.80
2019-01-08T05:53:30.129Z,6.37
2019-01-08T05:55:56.506Z,6.00
2019-01-08T05:58:22.989Z,7.60
2019-01-08T06:00:49.382Z,5.47
2019-01-08T06:03:15.953Z,6.70
2019-01-08T06:05:42.403Z,5.83
2019-01-08T06:08:08.880Z,5.83
2019-01-08T06:10:35.371Z,5.07
2019-01-08T06:13:02.028Z,5.63
2019-01-08T06:15:28.647Z,5.43
2019-01-08T06:17:55.106Z,4.40
2019-01-08T06:20:21.560Z,4.70
2019-01-08T06:22:48.120Z,3.30
2019-01-08T06:25:14.687Z,3.17
2019-01-08T06:27:41.157Z,3.97
2019-01-08T06:30:07.633Z,3.63
2019-01-08T06:32:34.189Z,3.00
2019-01-08T06:35:00.791Z,3.43
2019-01-08T06:37:27.154Z,3.80
2019-01-08T06:39:53.623Z,3.37
2019-01-08T06:42:20.085Z,4.20
2019-01-08T06:44:46.474Z,4.20
2019-01-08T06:47:12.842Z,3.77
2019-01-08T06:49:39.404Z,4.93
2019-01-08T06:52:05.872Z,5.03
2019-01-08T06:54:32.361Z,4.00
2019-01-08T06:57:00.642Z,5.03
2019-01-08T06:59:27.239Z,6.57
2019-01-08T07:01:53.606Z,6.77
2019-01-08T07:04:20.064Z,4.77
2019-01-08T07:06:46.537Z,5.33
2019-01-08T07:09:12.989Z,3.20
2019-01-08T07:11:39.470Z,9.73
2019-01-08T07:14:05.925Z,5.00
2019-01-08T07:16:32.547Z,4.20
2019-01-08T07:18:59.114Z,5.13
2019-01-08T07:21:25.590Z,5.10
2019-01-08T07:23:52.052Z,5.07
2019-01-08T07:26:18.641Z,4.63
2019-01-08T07:28:44.982Z,3.97
2019-01-08T07:31:11.474Z,4.70
2019-01-08T07:33:38.070Z,5.77
2019-01-08T07:36:04.554Z,3.47
2019-01-08T07:38:30.999Z,2.87
2019-01-08T07:40:57.467Z,3.33
2019-01-08T07:43:24.020Z,2.83
2019-01-08T07:45:50.418Z,4.40
2019-01-08T07:48:16.972Z,3.23
2019-01-08T07:50:43.536Z,2.90
2019-01-08T07:53:10.030Z,3.60
2019-01-08T07:55:36.575Z,5.07
2019-01-08T07:58:03.053Z,4.27
2019-01-08T08:00:29.409Z,4.03
2019-01-08T08:02:55.794Z,5.43
2019-01-08T08:05:22.239Z,4.03
2019-01-08T08:07:48.712Z,3.60
2019-01-08T08:10:15.163Z,3.97
2019-01-08T08:12:41.760Z,3.43
2019-01-08T08:15:08.224Z,4.07
2019-01-08T08:17:34.723Z,7.90
2019-01-08T08:20:01.290Z,4.40
2019-01-08T08:22:27.862Z,3.87
2019-01-08T08:24:55.931Z,6.00
2019-01-08T08:27:22.611Z,5.50
2019-01-08T08:29:49.118Z,3.27
2019-01-08T08:32:15.667Z,7.23
2019-01-08T08:34:42.255Z,3.80
2019-01-08T08:37:08.717Z,7.47
2019-01-08T08:39:35.292Z,5.27
2019-01-08T08:42:01.762Z,3.70
2019-01-08T08:44:28.231Z,5.03
2019-01-08T08:46:54.695Z,4.80
2019-01-08T08:49:21.275Z,4.17
2019-01-08T08:51:47.627Z,5.60
2019-01-08T08:54:14.095Z,9.47
2019-01-08T08:56:40.540Z,4.57
2019-01-08T08:59:07.029Z,6.33
2019-01-08T09:01:33.489Z,6.47
2019-01-08T09:04:00.082Z,3.33
2019-01-08T09:06:26.436Z,8.93
2019-01-08T09:08:53.180Z,4.80
2019-01-08T09:11:19.616Z,4.73
2019-01-08T09:13:46.085Z,5.27
2019-01-08T09:16:12.480Z,5.80
2019-01-08T09:18:38.843Z,5.70
2019-01-08T09:21:05.322Z,6.33
2019-01-08T09:23:31.672Z,7.87
2019-01-08T09:26:00.620Z,5.73
2019-01-08T09:28:27.075Z,3.83
2019-01-08T09:30:53.654Z,5.43
2019-01-08T09:33:20.104Z,5.57
2019-01-08T09:35:46.468Z,4.90
2019-01-08T09:38:13.027Z,5.50
2019-01-08T09:40:39.515Z,5.17
2019-01-08T09:43:05.978Z,4.80
2019-01-08T09:45:32.353Z,3.90
2019-01-08T09:47:58.896Z,4.53
2019-01-08T09:50:25.488Z,5.53
2019-01-08T09:52:51.948Z,5.43
2019-01-08T09:55:18.457Z,3.97
2019-01-08T09:57:44.799Z,3.93
2019-01-08T10:00:11.470Z,5.33
2019-01-08T10:02:37.858Z,6.47
2019-01-08T10:05:04.308Z,4.50
2019-01-08T10:07:31.003Z,3.43
2019-01-08T10:09:57.598Z,5.53
2019-01-08T10:12:24.181Z,5.03
2019-01-08T10:14:50.658Z,6.40
2019-01-08T10:17:17.178Z,5.70
2019-01-08T10:19:43.545Z,6.20
2019-01-08T10:22:10.083Z,5.37
2019-01-08T10:24:36.570Z,7.10
2019-01-08T10:27:03.141Z,5.90
2019-01-08T10:29:29.606Z,10.43
2019-01-08T10:31:56.219Z,10.10
2019-01-08T10:34:22.573Z,4.63
2019-01-08T10:36:48.964Z,8.03
2019-01-08T10:39:15.456Z,4.60
2019-01-08T10:41:41.917Z,8.20
2019-01-08T10:44:08.514Z,5.33
2019-01-08T10:46:37.535Z,6.40
2019-01-08T10:49:03.729Z,3.53
2019-01-08T10:51:30.191Z,4.67
2019-01-08T10:53:56.581Z,8.83
2019-01-08T10:56:23.038Z,5.83
2019-01-08T10:58:49.552Z,4.93
2019-01-08T11:01:15.913Z,5.87
2019-01-08T11:03:42.293Z,6.00
2019-01-08T11:06:08.735Z,7.63
2019-01-08T11:08:35.129Z,4.77
2019-01-08T11:11:01.509Z,7.00
2019-01-08T11:13:27.912Z,3.93
2019-01-08T11:15:54.292Z,6.10
2019-01-08T11:18:20.882Z,9.13
2019-01-08T11:20:47.266Z,3.33
2019-01-08T11:23:13.647Z,5.80
2019-01-08T11:25:40.167Z,3.80
2019-01-08T11:28:06.534Z,5.87
2019-01-08T11:30:33.199Z,6.07
2019-01-08T11:32:59.697Z,3.97
2019-01-08T11:35:26.161Z,5.87
2019-01-08T11:37:52.654Z,4.40
2019-01-08T11:40:19.225Z,3.77
2019-01-08T11:42:45.698Z,6.73
2019-01-08T11:45:12.211Z,7.30
2019-01-08T11:47:38.681Z,8.40
2019-01-08T11:50:05.853Z,4.50
2019-01-08T11:52:32.307Z,7.10
2019-01-08T11:54:58.825Z,3.13
2019-01-08T11:57:25.370Z,4.33
2019-01-08T11:59:51.838Z,6.03
2019-01-08T12:02:18.440Z,2.57
2019-01-08T12:04:45.003Z,4.43
2019-01-08T12:07:11.465Z,4.63
2019-01-08T12:09:37.934Z,7.53
2019-01-08T12:12:04.553Z,4.47
2019-01-08T12:14:31.104Z,2.87
2019-01-08T12:16:57.641Z,4.40
2019-01-08T12:19:24.201Z,6.83
2019-01-08T12:21:50.798Z,3.33
2019-01-08T12:24:17.366Z,5.87
2019-01-08T12:26:43.863Z,1.80
2019-01-08T12:29:10.326Z,2.30
2019-01-08T12:31:36.813Z,3.53
2019-01-08T12:34:03.385Z,2.97
2019-01-08T12:36:29.779Z,4.73
2019-01-08T12:38:56.144Z,4.40
2019-01-08T12:41:22.691Z,3.73
2019-01-08T12:43:49.326Z,4.13
2019-01-08T12:46:15.782Z,3.37
2019-01-08T12:48:42.284Z,4.60
2019-01-08T12:51:08.740Z,2.87
2019-01-08T12:53:36.274Z,3.23
2019-01-08T12:56:02.891Z,3.87
2019-01-08T12:58:29.262Z,5.00
2019-01-08T13:00:55.838Z,4.37
2019-01-08T13:03:22.413Z,4.47
2019-01-08T13:05:48.963Z,5.07
2019-01-08T13:08:15.355Z,5.20
2019-01-08T13:10:41.831Z,3.63
2019-01-08T13:13:08.520Z,1.60
2019-01-08T13:15:35.018Z,1.87
2019-01-08T13:18:01.503Z,2.57
2019-01-08T13:20:27.962Z,3.50
2019-01-08T13:22:54.464Z,5.83
2019-01-08T13:25:21.027Z,2.20
2019-01-08T13:27:47.727Z,3.30
2019-01-08T13:30:14.191Z,1.33
2019-01-08T13:32:40.644Z,6.23
2019-01-08T13:35:07.127Z,2.40
2019-01-08T13:37:33.477Z,3.70
2019-01-08T13:40:00.048Z,2.23
2019-01-08T13:42:26.539Z,2.07
2019-01-08T13:44:53.025Z,4.13
2019-01-08T13:47:19.497Z,4.20
2019-01-08T13:49:46.688Z,5.83
2019-01-08T13:52:13.341Z,4.00
2019-01-08T13:54:39.741Z,2.27
2019-01-08T13:57:06.102Z,5.07
2019-01-08T13:59:32.467Z,2.13
2019-01-08T14:01:59.067Z,3.23
2019-01-08T14:04:25.552Z,2.73
2019-01-08T14:06:52.134Z,1.33
2019-01-08T14:09:18.500Z,8.63
2019-01-08T14:11:45.012Z,3.27
2019-01-08T14:14:11.492Z,2.40
2019-01-08T14:16:37.906Z,3.50
2019-01-08T14:19:04.478Z,3.73
2019-01-08T14:21:30.900Z,4.43
2019-01-08T14:23:57.326Z,3.43
2019-01-08T14:26:23.860Z,4.47
2019-01-08T14:28:50.324Z,6.50
2019-01-08T14:31:16.921Z,5.90
2019-01-08T14:33:43.479Z,10.57
2019-01-08T14:36:10.011Z,5.93
2019-01-08T14:38:36.392Z,2.90
2019-01-08T14:41:02.759Z,4.60
2019-01-08T14:43:29.144Z,3.67
2019-01-08T14:45:55.639Z,2.80
2019-01-08T14:48:22.118Z,1.80
2019-01-08T14:50:48.719Z,2.43
2019-01-08T14:53:15.193Z,2.30
2019-01-08T14:55:41.637Z,3.47
2019-01-08T14:58:08.200Z,2.27
2019-01-08T15:00:34.670Z,3.43
2019-01-08T15:03:01.141Z,3.30
2019-01-08T15:05:27.589Z,2.20
2019-01-08T15:07:53.972Z,3.13
2019-01-08T15:10:20.432Z,4.23
2019-01-08T15:12:46.791Z,5.60
2019-01-08T15:15:13.142Z,5.10
2019-01-08T15:17:39.612Z,2.50
2019-01-08T15:20:06.080Z,2.63
2019-01-08T15:22:32.552Z,2.93
2019-01-08T15:24:58.908Z,2.93
2019-01-08T15:27:25.436Z,2.43
2019-01-08T15:29:51.801Z,5.73
2019-01-08T15:32:18.305Z,2.27
2019-01-08T15:34:44.833Z,1.97
2019-01-08T15:37:11.201Z,4.23
2019-01-08T15:39:37.690Z,2.27
2019-01-08T15:42:04.036Z,2.97
2019-01-08T15:44:30.524Z,5.37
2019-01-08T15:46:56.885Z,2.03
2019-01-08T15:49:23.355Z,2.50
2019-01-08T15:51:49.922Z,2.50
2019-01-08T15:54:16.501Z,2.93
2019-01-08T15:56:42.964Z,3.30
2019-01-08T15:59:09.341Z,2.80
2019-01-08T16:01:35.793Z,4.03
2019-01-08T16:04:02.267Z,2.50
2019-01-08T16:06:28.616Z,1.87
2019-01-08T16:08:55.212Z,2.80
2019-01-08T16:11:21.675Z,3.10
2019-01-08T16:13:48.040Z,3.27
2019-01-08T16:16:14.447Z,3.60
2019-01-08T16:18:40.896Z,3.43
2019-01-08T16:21:07.292Z,7.23
2019-01-08T16:23:33.643Z,2.27
2019-01-08T16:26:00.129Z,2.90
2019-01-08T16:28:26.489Z,2.13
2019-01-08T16:30:53.012Z,2.97
2019-01-08T16:33:19.571Z,3.73
2019-01-08T16:35:46.160Z,5.50
2019-01-08T16:38:12.525Z,5.50
2019-01-08T16:40:38.931Z,4.00
2019-01-08T16:43:05.505Z,3.37
2019-01-08T16:45:31.977Z,6.10
2019-01-08T16:47:58.448Z,3.63
2019-01-08T16:50:24.920Z,3.27
2019-01-08T16:52:51.289Z,4.13
2019-01-08T16:55:17.676Z,3.50
2019-01-08T16:57:44.045Z,2.47
2019-01-08T17:00:10.954Z,4.90
2019-01-08T17:02:37.405Z,2.23
2019-01-08T17:05:03.847Z,4.20
2019-01-08T17:07:30.240Z,2.37
2019-01-08T17:09:56.716Z,5.10
2019-01-08T17:12:23.192Z,5.47
2019-01-08T17:14:49.706Z,5.40
2019-01-08T17:17:16.305Z,5.57
2019-01-08T17:19:42.664Z,3.70
2019-01-08T17:22:09.048Z,8.67
2019-01-08T17:24:35.508Z,5.57
2019-01-08T17:27:01.901Z,6.60
2019-01-08T17:29:28.463Z,5.43
2019-01-08T17:31:54.939Z,7.93
2019-01-08T17:34:21.505Z,2.03
2019-01-08T17:36:48.085Z,5.63
2019-01-08T17:39:14.545Z,6.00
2019-01-08T17:41:40.929Z,5.53
2019-01-08T17:44:07.381Z,6.60
2019-01-08T17:46:33.915Z,3.93
2019-01-08T17:49:00.367Z,4.67
2019-01-08T17:51:26.802Z,2.40
2019-01-08T17:53:53.167Z,4.20
2019-01-08T17:56:19.522Z,3.27
2019-01-08T17:58:45.999Z,2.90
2019-01-08T18:01:14.079Z,5.13
2019-01-08T18:03:42.909Z,1.73
2019-01-08T18:06:08.959Z,8.63
2019-01-08T18:08:35.349Z,5.53
2019-01-08T18:11:01.710Z,4.63
2019-01-08T18:13:28.388Z,3.67
2019-01-08T18:15:54.968Z,4.43
2019-01-08T18:18:21.341Z,6.33
2019-01-08T18:20:47.894Z,5.63
2019-01-08T18:23:14.363Z,3.20
2019-01-08T18:25:40.905Z,8.43
2019-01-08T18:28:07.404Z,4.90
2019-01-08T18:30:33.967Z,7.20
2019-01-08T18:33:00.450Z,11.83
2019-01-08T18:35:26.913Z,4.63
2019-01-08T18:37:53.292Z,6.43
2019-01-08T18:40:20.030Z,7.57
2019-01-08T18:42:46.480Z,3.83
2019-01-08T18:45:12.960Z,3.87
2019-01-08T18:47:39.312Z,8.23
2019-01-08T18:50:05.919Z,2.30
2019-01-08T18:52:32.379Z,6.27
2019-01-08T18:54:58.919Z,10.30
2019-01-08T18:57:25.305Z,7.60
2019-01-08T18:59:51.894Z,6.77
2019-01-08T19:02:18.338Z,4.70
2019-01-08T19:04:44.832Z,6.10
2019-01-08T19:07:11.297Z,9.20
2019-01-08T19:09:37.679Z,4.73
2019-01-08T19:12:04.124Z,5.63
2019-01-08T19:14:32.157Z,7.40
2019-01-08T19:16:58.756Z,7.53
2019-01-08T19:19:25.127Z,6.23
2019-01-08T19:21:51.584Z,7.33
2019-01-08T19:24:18.353Z,10.40
2019-01-08T19:26:44.819Z,6.23
2019-01-08T19:29:11.255Z,7.07
2019-01-08T19:31:37.723Z,10.47
2019-01-08T19:34:08.998Z,6.13
2019-01-08T19:36:32.568Z,5.07
2019-01-08T19:38:59.024Z,8.33
2019-01-08T19:41:25.506Z,9.30
2019-01-08T19:43:52.088Z,5.90
2019-01-08T19:46:18.485Z,1.73
2019-01-08T19:48:44.831Z,8.27
2019-01-08T19:51:11.304Z,4.70
2019-01-08T19:53:37.749Z,2.97
2019-01-08T19:56:04.240Z,6.17
2019-01-08T19:58:30.805Z,5.57
2019-01-08T20:00:57.405Z,4.47
2019-01-08T20:03:23.755Z,4.70
2019-01-08T20:05:50.211Z,2.43
2019-01-08T20:08:16.786Z,3.10
2019-01-08T20:10:43.286Z,5.80
2019-01-08T20:13:09.743Z,6.37
2019-01-08T20:15:36.241Z,4.27
2019-01-08T20:18:02.609Z,2.20
2019-01-08T20:20:28.959Z,5.63
2019-01-08T20:22:55.334Z,3.47
2019-01-08T20:25:21.895Z,4.27
2019-01-08T20:27:48.359Z,5.60
2019-01-08T20:30:14.920Z,4.43
2019-01-08T20:32:41.290Z,6.13
2019-01-08T20:35:10.063Z,4.47
2019-01-08T20:37:36.242Z,3.73
2019-01-08T20:40:02.788Z,4.50
2019-01-08T20:42:29.363Z,5.57
2019-01-08T20:44:55.942Z,5.10
2019-01-08T20:47:22.433Z,8.90
2019-01-08T20:49:48.912Z,6.20
2019-01-08T20:52:15.380Z,5.07
2019-01-08T20:54:42.044Z,8.60
2019-01-08T20:57:09.246Z,6.23
2019-01-08T20:59:37.837Z,6.47
2019-01-08T21:02:04.217Z,7.67
2019-01-08T21:04:35.343Z,6.13
2019-01-08T21:06:58.862Z,4.10
2019-01-08T21:09:25.242Z,6.50
2019-01-08T21:11:52.127Z,6.53
2019-01-08T21:14:18.599Z,5.67
2019-01-08T21:16:46.818Z,5.83
2019-01-08T21:19:13.356Z,4.17
2019-01-08T21:21:39.825Z,6.10
2019-01-08T21:24:06.195Z,5.03
2019-01-08T21:26:32.669Z,5.10
2019-01-08T21:28:59.262Z,4.13
2019-01-08T21:31:25.708Z,5.67
2019-01-08T21:33:52.120Z,8.13
2019-01-08T21:36:18.561Z,5.57
2019-01-08T21:38:44.927Z,6.67
2019-01-08T21:41:11.301Z,6.20
2019-01-08T21:43:37.834Z,9.37
2019-01-08T21:46:04.342Z,5.77
2019-01-08T21:48:30.941Z,7.77
2019-01-08T21:50:57.326Z,7.30
2019-01-08T21:53:23.680Z,8.57
2019-01-08T21:55:50.162Z,5.20
2019-01-08T21:58:16.633Z,9.90
2019-01-08T22:03:15.930Z,8.67
2019-01-08T22:05:42.796Z,5.60
2019-01-08T22:08:09.373Z,8.43
2019-01-08T22:10:35.847Z,11.97
2019-01-08T22:13:02.294Z,6.23
2019-01-08T22:15:28.828Z,6.80
2019-01-08T22:17:55.377Z,7.37
2019-01-08T22:20:22.832Z,7.90
2019-01-08T22:22:52.695Z,7.70
2019-01-08T22:25:17.683Z,6.97
2019-01-08T22:27:44.147Z,11.20
2019-01-08T22:30:10.611Z,8.03
2019-01-08T22:32:37.151Z,10.20
2019-01-08T22:35:03.619Z,7.07
2019-01-08T22:37:30.176Z,8.07
2019-01-08T22:39:56.658Z,11.00
2019-01-08T22:42:23.005Z,6.60
2019-01-08T22:44:49.857Z,7.93
2019-01-08T22:47:16.294Z,7.17
2019-01-08T22:49:42.738Z,9.10
2019-01-08T22:52:09.314Z,9.53
2019-01-08T22:54:35.755Z,10.80
2019-01-08T22:57:02.331Z,7.37
2019-01-08T22:59:29.293Z,8.40
2019-01-08T23:01:55.762Z,7.37
2019-01-08T23:04:22.308Z,11.17
2019-01-08T23:06:48.784Z,8.50
2019-01-08T23:09:15.430Z,7.97
2019-01-08T23:11:41.952Z,5.03
2019-01-08T23:14:08.416Z,6.47
2019-01-08T23:16:34.915Z,7.97
2019-01-08T23:19:01.279Z,9.23
2019-01-08T23:21:27.738Z,7.90
2019-01-08T23:23:54.199Z,5.90
2019-01-08T23:26:20.690Z,10.87
2019-01-08T23:28:47.118Z,14.57
2019-01-08T23:31:13.940Z,12.67
2019-01-08T23:33:40.391Z,12.97
2019-01-08T23:36:06.842Z,7.83
2019-01-08T23:38:33.402Z,6.63
2019-01-08T23:40:59.856Z,10.43
2019-01-08T23:43:26.350Z,8.83
2019-01-08T23:45:52.900Z,4.83
2019-01-08T23:48:19.286Z,7.37
2019-01-08T23:50:45.873Z,5.63
2019-01-08T23:53:14.274Z,6.60
2019-01-08T23:55:42.610Z,8.37
2019-01-08T23:58:10.916Z,6.17
